Time;durP1;ratioP1;P1;durP2;ratioP2;P2;SDS_P1;SDS_P2;PMS_P1;PMS_P2;Temp;Humidity;BMP_temperature;BMP_pressure;BME280_temperature;BME280_humidity;BME280_pressure;Samples;Min_cycle;Max_cycle;Signal;HPM_P1;HPM_P2
2023/02/22 00:03:06;;;;;;;16.63;8.40;;;;;;;-7.42;45.45;97976.88;5059477;28;20312;-66
2023/02/22 00:05:32;;;;;;;24.47;10.10;;;;;;;-7.50;45.44;97988.53;5041815;28;20771;-65
2023/02/22 00:07:59;;;;;;;23.80;9.93;;;;;;;-7.59;45.65;97984.72;5041469;28;20293;-65
2023/02/22 00:10:25;;;;;;;18.63;9.40;;;;;;;-7.55;45.76;97996.50;5025393;28;20380;-65
2023/02/22 00:12:53;;;;;;;24.30;9.37;;;;;;;-7.57;45.73;98002.69;5058347;28;20369;-65
2023/02/22 00:15:21;;;;;;;21.47;9.20;;;;;;;-7.41;45.64;98006.06;5074943;28;20443;-66
2023/02/22 00:17:47;;;;;;;18.83;7.83;;;;;;;-7.67;45.52;98007.53;5058310;28;20289;-70
2023/02/22 00:20:14;;;;;;;20.53;8.47;;;;;;;-7.49;45.60;98019.38;5058503;28;20282;-66
2023/02/22 00:22:48;;;;;;;16.50;8.23;;;;;;;-7.29;45.69;98016.47;5041357;28;20071;-64
2023/02/22 00:25:18;;;;;;;20.33;8.30;;;;;;;-7.46;45.43;98026.13;5075790;28;20439;-65
2023/02/22 00:27:48;;;;;;;13.57;7.45;;;;;;;-7.33;45.70;98030.47;5058648;28;20282;-66
2023/02/22 00:30:23;;;;;;;15.50;7.50;;;;;;;-7.31;45.64;98030.38;5024888;28;20044;-65
2023/02/22 00:32:49;;;;;;;21.63;8.03;;;;;;;-7.66;45.58;98024.66;5041329;28;20058;-66
2023/02/22 00:35:16;;;;;;;16.57;8.23;;;;;;;-7.53;45.54;98032.50;5091673;28;20289;-65
2023/02/22 00:37:43;;;;;;;14.20;7.87;;;;;;;-7.68;45.36;98021.34;5041007;28;20266;-65
2023/02/22 00:40:10;;;;;;;19.57;8.97;;;;;;;-7.52;45.50;98036.78;5040255;28;20282;-66
2023/02/22 00:42:36;;;;;;;13.97;7.70;;;;;;;-7.63;45.24;98032.22;5056641;28;20308;-65
2023/02/22 00:45:04;;;;;;;21.30;7.93;;;;;;;-7.49;45.45;98036.59;5039142;28;20294;-66
2023/02/22 00:47:30;;;;;;;15.63;8.63;;;;;;;-7.71;45.36;98034.38;5056881;28;20044;-65
2023/02/22 00:49:56;;;;;;;15.97;7.93;;;;;;;-7.68;45.42;98033.38;5056609;28;20351;-65
2023/02/22 00:52:22;;;;;;;14.20;7.43;;;;;;;-7.73;45.45;98041.38;5039956;28;20074;-66
2023/02/22 00:54:48;;;;;;;15.53;7.30;;;;;;;-7.73;45.78;98043.09;5040413;28;20652;-66
2023/02/22 00:57:14;;;;;;;16.47;7.97;;;;;;;-7.70;45.70;98045.53;5074173;28;20047;-65
2023/02/22 00:59:40;;;;;;;16.73;7.67;;;;;;;-7.75;45.61;98050.91;5024726;28;20050;-65
2023/02/22 01:02:06;;;;;;;15.63;7.33;;;;;;;-7.77;45.54;98055.34;5040880;28;20282;-66
2023/02/22 01:04:31;;;;;;;17.27;8.93;;;;;;;-7.74;45.85;98059.47;5040962;28;20144;-66
2023/02/22 01:06:59;;;;;;;20.17;8.43;;;;;;;-7.75;45.54;98079.25;5024329;28;20036;-65
2023/02/22 01:09:26;;;;;;;15.97;8.50;;;;;;;-7.72;45.83;98062.81;5074347;28;20148;-66
2023/02/22 01:11:55;;;;;;;15.30;7.97;;;;;;;-7.41;45.95;98068.75;5024359;28;20363;-66
2023/02/22 01:14:25;;;;;;;16.27;8.55;;;;;;;-7.59;45.68;98067.19;5041162;28;20193;-66
2023/02/22 01:16:53;;;;;;;21.00;7.87;;;;;;;-7.76;45.49;98075.03;5057232;28;20395;-68
2023/02/22 01:19:19;;;;;;;14.73;8.00;;;;;;;-7.85;45.93;98070.38;5041228;28;20298;-65
2023/02/22 01:21:47;;;;;;;17.20;8.30;;;;;;;-7.85;45.79;98080.69;5074480;28;20274;-66
2023/02/22 01:24:15;;;;;;;15.63;8.07;;;;;;;-7.82;46.05;98070.22;5057195;28;20761;-65
2023/02/22 01:26:49;;;;;;;22.00;8.23;;;;;;;-7.63;46.09;98072.63;5040586;28;21123;-65
2023/02/22 01:29:16;;;;;;;17.63;7.03;;;;;;;-7.83;46.25;98072.88;5057127;28;20807;-64
2023/02/22 01:31:50;;;;;;;14.43;7.70;;;;;;;-7.57;46.46;98077.44;5056864;28;20344;-65
2023/02/22 01:34:17;;;;;;;14.67;7.73;;;;;;;-7.81;46.30;98079.59;5075620;28;20390;-66
2023/02/22 01:36:43;;;;;;;15.90;8.83;;;;;;;-7.99;46.17;98083.16;5042463;28;20292;-66
2023/02/22 01:39:10;;;;;;;22.33;8.40;;;;;;;-8.09;45.92;98087.16;5041853;28;20294;-64
2023/02/22 01:41:37;;;;;;;15.67;7.93;;;;;;;-7.96;46.43;98092.47;5041996;28;20281;-66
2023/02/22 01:44:27;;;;;;;16.47;7.77;;;;;;;-7.51;46.42;98108.84;5042128;28;20324;-66
2023/02/22 01:46:55;;;;;;;16.33;7.17;;;;;;;-7.97;45.93;98089.09;5042669;28;20281;-66
2023/02/22 01:49:22;;;;;;;17.97;8.07;;;;;;;-7.93;46.23;98110.38;5042250;28;20317;-66
2023/02/22 01:51:51;;;;;;;16.70;8.70;;;;;;;-7.83;46.25;98112.34;5042913;28;20298;-66
2023/02/22 01:54:27;;;;;;;19.53;8.60;;;;;;;-7.69;46.18;98109.03;5061170;28;20293;-68
2023/02/22 01:57:00;;;;;;;18.93;8.47;;;;;;;-7.69;46.36;98112.44;5076233;28;20308;-69
2023/02/22 01:59:28;;;;;;;13.60;7.43;;;;;;;-7.83;45.79;98109.78;5027753;28;20293;-66
2023/02/22 02:01:54;;;;;;;19.80;8.00;;;;;;;-8.07;45.73;98118.78;5060776;28;20301;-66
2023/02/22 02:04:24;;;;;;;16.73;8.37;;;;;;;-8.09;45.93;98127.53;5028420;28;20290;-70
2023/02/22 02:06:53;;;;;;;;;;;;;;;-7.56;45.81;98128.03;5062587;28;20281;-70
2023/02/22 02:09:32;;;;;;;15.60;8.13;;;;;;;-7.86;45.73;98129.72;5044403;28;20244;-65
2023/02/22 02:11:59;;;;;;;21.60;8.83;;;;;;;-7.96;46.00;98137.09;5060500;28;20054;-66
2023/02/22 02:14:26;;;;;;;15.70;7.37;;;;;;;-8.07;45.92;98130.88;5060813;28;20304;-66
2023/02/22 02:16:52;;;;;;;21.97;9.87;;;;;;;-8.00;46.17;98138.19;5044254;28;20741;-66
2023/02/22 02:19:53;;;;;;;18.77;7.90;;;;;;;-7.54;46.15;98128.81;5060310;28;20381;-66
2023/02/22 02:22:27;;;;;;;16.90;7.20;;;;;;;-7.65;45.70;98134.53;5077444;28;20365;-66
2023/02/22 02:25:18;;;;;;;15.07;8.37;;;;;;;-7.58;46.34;98143.59;5077258;28;20301;-64
2023/02/22 02:27:53;;;;;;;21.77;8.40;;;;;;;-7.72;45.93;98142.69;5093896;28;20806;-65
2023/02/22 02:30:25;;;;;;;17.23;8.20;;;;;;;-7.72;46.02;98142.69;5060560;28;20777;-67
2023/02/22 02:33:09;;;;;;;19.73;8.67;;;;;;;-7.66;46.49;98163.81;5060667;28;20278;-65
2023/02/22 02:35:57;;;;;;;19.67;8.67;;;;;;;-7.71;46.11;98162.38;5043103;28;20622;-67
2023/02/22 02:38:53;;;;;;;23.67;8.97;;;;;;;-7.60;46.32;98153.19;5043732;28;20285;-66
2023/02/22 02:41:29;;;;;;;19.70;8.93;;;;;;;-7.67;45.87;98169.88;5043648;28;20282;-67
2023/02/22 02:44:11;;;;;;;18.57;9.20;;;;;;;-7.64;46.01;98169.69;5060290;28;20769;-71
2023/02/22 02:47:09;;;;;;;19.93;9.13;;;;;;;-7.66;46.02;98168.13;5042645;28;20761;-67
2023/02/22 02:49:50;;;;;;;17.13;9.30;;;;;;;-7.85;45.86;98176.00;5060523;28;20611;-66
2023/02/22 02:52:17;;;;;;;16.75;8.07;;;;;;;-8.15;45.77;98169.06;5026699;28;20341;-67
2023/02/22 02:54:44;;;;;;;21.47;8.90;;;;;;;-8.10;46.24;98175.63;5043044;28;20059;-66
2023/02/22 02:57:11;;;;;;;26.87;10.13;;;;;;;-8.26;46.05;98185.09;5059579;28;20321;-67
2023/02/22 02:59:37;;;;;;;22.57;8.77;;;;;;;-8.22;46.03;98181.41;5026304;28;20282;-66
2023/02/22 03:02:18;;;;;;;15.33;8.33;;;;;;;-7.82;46.39;98182.72;5042558;28;20293;-67
2023/02/22 03:05:10;;;;;;;31.63;9.03;;;;;;;-7.88;46.31;98183.91;5076163;28;20282;-66
2023/02/22 03:07:54;;;;;;;15.77;8.00;;;;;;;-7.70;46.21;98193.22;5029885;28;20292;-67
2023/02/22 03:10:42;;;;;;;21.77;8.43;;;;;;;-7.87;46.21;98190.69;5059397;28;20282;-66
2023/02/22 03:13:13;;;;;;;19.17;9.13;;;;;;;-7.95;45.76;98192.84;5062786;28;20293;-66
2023/02/22 03:15:51;;;;;;;17.13;7.97;;;;;;;-7.91;45.92;98208.97;5042394;28;20389;-65
2023/02/22 03:18:47;;;;;;;17.17;8.47;;;;;;;-7.85;45.75;98208.66;5059073;28;20347;-65
2023/02/22 03:21:24;;;;;;;18.93;9.93;;;;;;;-7.95;46.30;98203.13;5027798;28;20773;-66
2023/02/22 03:23:59;;;;;;;19.20;9.20;;;;;;;-8.02;46.03;98217.25;5057136;28;20745;-66
2023/02/22 03:26:51;;;;;;;12.90;7.20;;;;;;;-7.96;46.19;98222.09;5032703;28;20282;-67
2023/02/22 03:29:20;;;;;;;16.57;8.47;;;;;;;-8.12;46.06;98228.97;5032444;28;20867;-66
2023/02/22 03:31:54;;;;;;;15.43;8.00;;;;;;;-8.03;46.35;98228.47;5032060;28;20308;-66
2023/02/22 03:34:26;;;;;;;17.73;9.40;;;;;;;-8.00;46.25;98235.22;5032617;28;20282;-68
2023/02/22 03:37:02;;;;;;;22.27;8.17;;;;;;;-8.01;45.83;98239.50;5039507;28;20377;-66
2023/02/22 03:39:39;;;;;;;15.23;8.47;;;;;;;-8.31;45.57;98237.69;5043317;28;20270;-67
2023/02/22 03:42:14;;;;;;;21.93;9.60;;;;;;;-8.00;45.55;98243.78;5007328;28;20927;-69
2023/02/22 03:44:42;;;;;;;11.53;7.17;;;;;;;-8.12;45.53;98241.84;5038858;28;20325;-68
2023/02/22 03:47:13;;;;;;;17.50;8.77;;;;;;;-8.08;45.81;98245.06;5019385;28;20294;-67
2023/02/22 03:49:50;;;;;;;23.47;8.63;;;;;;;-7.95;45.87;98246.94;5036053;28;20279;-66
2023/02/22 03:52:16;;;;;;;20.67;9.10;;;;;;;-8.36;45.46;98253.38;5005794;28;20317;-69
2023/02/22 03:54:43;;;;;;;21.80;8.93;;;;;;;-8.34;45.64;98251.56;5020951;28;20290;-67
2023/02/22 03:57:16;;;;;;;19.53;8.87;;;;;;;-8.07;45.81;98255.28;5021656;28;20351;-67
2023/02/22 03:59:43;;;;;;;18.90;8.77;;;;;;;-8.43;45.58;98264.03;5055297;28;20343;-66
2023/02/22 04:02:10;;;;;;;17.50;8.60;;;;;;;-8.47;45.67;98262.53;5054777;28;20393;-66
2023/02/22 04:04:39;;;;;;;19.17;9.27;;;;;;;-8.14;45.94;98268.53;5038341;28;20286;-68
2023/02/22 04:07:06;;;;;;;19.83;9.50;;;;;;;-8.49;46.99;98272.91;5005872;28;20369;-66
2023/02/22 04:09:32;;;;;;;22.70;10.10;;;;;;;-8.43;46.73;98267.47;5038261;28;20322;-67
2023/02/22 04:11:58;;;;;;;21.93;9.73;;;;;;;-8.48;46.34;98272.00;5038277;28;20334;-66
2023/02/22 04:14:25;;;;;;;24.70;8.53;;;;;;;-8.44;46.26;98276.06;5022178;28;20059;-67
2023/02/22 04:16:53;;;;;;;20.00;8.43;;;;;;;-8.45;46.00;98276.16;5005593;28;20274;-66
2023/02/22 04:19:19;;;;;;;20.63;9.63;;;;;;;-8.41;45.67;98281.06;5021613;28;20607;-66
2023/02/22 04:21:45;;;;;;;19.73;8.90;;;;;;;-8.35;46.26;98278.22;5021460;28;20393;-66
2023/02/22 04:24:18;;;;;;;19.03;8.67;;;;;;;-8.40;45.72;98280.19;5039241;28;20094;-66
2023/02/22 04:26:44;;;;;;;19.77;9.00;;;;;;;-8.36;45.83;98280.88;5054690;28;20291;-67
2023/02/22 04:29:10;;;;;;;17.10;7.50;;;;;;;-8.42;45.71;98297.44;5021507;28;20287;-67
2023/02/22 04:31:38;;;;;;;19.80;9.53;;;;;;;-8.45;45.82;98302.72;5005581;28;20393;-66
2023/02/22 04:34:05;;;;;;;18.17;8.43;;;;;;;-8.47;45.86;98301.97;5021384;28;20766;-67
2023/02/22 04:36:34;;;;;;;21.43;9.17;;;;;;;-8.43;45.74;98310.38;5022022;28;20333;-67
2023/02/22 04:39:00;;;;;;;24.97;8.00;;;;;;;-8.33;46.03;98299.56;5021621;28;20745;-66
2023/02/22 04:41:30;;;;;;;13.83;8.03;;;;;;;-8.38;45.92;98316.97;5055277;28;20063;-66
2023/02/22 04:43:56;;;;;;;22.87;9.00;;;;;;;-8.40;46.03;98312.78;5038493;28;20290;-66
2023/02/22 04:46:24;;;;;;;21.20;9.43;;;;;;;-8.43;45.98;98324.09;5005367;28;20287;-66
2023/02/22 04:48:52;;;;;;;25.97;8.97;;;;;;;-8.40;46.01;98323.94;5054263;28;20301;-67
2023/02/22 04:51:21;;;;;;;17.00;7.80;;;;;;;-8.44;45.70;98330.13;5021811;28;20318;-67
2023/02/22 04:54:07;;;;;;;18.63;7.40;;;;;;;-8.35;45.95;98314.25;5040191;28;20788;-68
2023/02/22 04:56:35;;;;;;;29.80;9.83;;;;;;;-8.45;46.07;98318.16;5005301;28;20363;-66
2023/02/22 04:59:01;;;;;;;21.00;7.73;;;;;;;-8.34;45.73;98333.94;5037469;28;20294;-66
2023/02/22 05:01:32;;;;;;;15.07;7.90;;;;;;;-7.92;45.81;98331.81;5021349;28;20048;-67
2023/02/22 05:03:58;;;;;;;18.93;9.43;;;;;;;-8.24;45.28;98339.47;5071099;28;20449;-67
2023/02/22 05:06:24;;;;;;;16.00;8.57;;;;;;;-8.29;45.19;98328.56;5020780;28;20778;-66
2023/02/22 05:08:50;;;;;;;18.37;9.20;;;;;;;-8.20;45.41;98331.50;5037245;28;20294;-66
2023/02/22 05:11:16;;;;;;;15.87;6.77;;;;;;;-8.20;45.27;98334.06;5054217;28;20090;-67
2023/02/22 05:13:42;;;;;;;16.17;9.73;;;;;;;-8.20;45.10;98338.38;5004654;28;20036;-66
2023/02/22 05:16:08;;;;;;;19.90;10.47;;;;;;;-8.14;44.99;98341.50;5004544;28;20488;-68
2023/02/22 05:18:34;;;;;;;24.70;9.47;;;;;;;-8.10;44.99;98350.72;5037429;28;20290;-67
2023/02/22 05:21:00;;;;;;;16.87;8.80;;;;;;;-8.07;44.80;98350.56;5054899;28;20433;-66
2023/02/22 05:23:26;;;;;;;21.50;8.57;;;;;;;-8.00;45.04;98354.53;5070835;28;20048;-67
2023/02/22 05:25:52;;;;;;;20.87;9.07;;;;;;;-7.92;44.81;98355.00;5004663;28;20608;-66
2023/02/22 05:28:18;;;;;;;19.60;8.47;;;;;;;-7.77;44.90;98367.09;5004826;28;20051;-66
2023/02/22 05:30:44;;;;;;;17.67;9.77;;;;;;;-7.77;44.11;98367.09;5054306;28;20402;-66
2023/02/22 05:33:09;;;;;;;16.40;9.03;;;;;;;-7.65;44.08;98371.63;5020851;28;20040;-67
2023/02/22 05:35:36;;;;;;;23.13;9.03;;;;;;;-7.59;44.06;98381.63;5020462;28;20484;-66
2023/02/22 05:38:03;;;;;;;19.37;9.23;;;;;;;-7.35;43.76;98372.63;5021311;28;20106;-66
2023/02/22 05:40:29;;;;;;;22.23;10.10;;;;;;;-7.33;43.26;98372.56;5021080;28;20287;-67
2023/02/22 05:42:58;;;;;;;22.53;9.53;;;;;;;-7.18;43.13;98382.09;5021339;28;20291;-66
2023/02/22 05:45:25;;;;;;;21.73;8.97;;;;;;;-6.96;43.16;98371.50;5004728;28;20285;-67
2023/02/22 05:47:52;;;;;;;19.77;8.83;;;;;;;-6.98;42.66;98381.06;5020921;28;20769;-66
2023/02/22 05:50:19;;;;;;;22.63;8.90;;;;;;;-7.01;42.64;98380.28;5037116;28;20688;-67
2023/02/22 05:52:46;;;;;;;20.47;8.70;;;;;;;-6.83;42.33;98381.06;5037160;28;20393;-67
2023/02/22 05:55:13;;;;;;;23.23;10.17;;;;;;;-6.69;41.94;98383.75;5004612;28;20286;-67
2023/02/22 05:57:39;;;;;;;16.13;7.80;;;;;;;-6.73;42.14;98397.72;5037427;28;20338;-67
2023/02/22 06:00:05;;;;;;;23.63;8.70;;;;;;;-6.42;41.71;98389.97;5004626;28;20286;-66
2023/02/22 06:02:38;;;;;;;23.93;9.30;;;;;;;-6.39;41.56;98396.72;5054888;28;20131;-66
2023/02/22 06:05:04;;;;;;;14.17;7.83;;;;;;;-6.25;41.18;98394.22;5037457;28;20687;-67
2023/02/22 06:07:30;;;;;;;19.80;8.63;;;;;;;-6.36;40.62;98393.97;5020706;28;20103;-68
2023/02/22 06:09:57;;;;;;;27.43;9.80;;;;;;;-6.36;40.36;98392.22;5037290;28;20286;-66
2023/02/22 06:12:23;;;;;;;23.13;9.80;;;;;;;-6.17;40.33;98402.38;5036717;28;20397;-66
2023/02/22 06:14:49;;;;;;;23.93;9.63;;;;;;;-6.34;40.23;98410.22;5020561;28;20057;-67
2023/02/22 06:17:15;;;;;;;18.83;9.10;;;;;;;-6.20;40.28;98402.53;5020549;28;20360;-68
2023/02/22 06:19:41;;;;;;;20.10;8.03;;;;;;;-6.17;40.31;98405.81;5004555;28;20125;-67
2023/02/22 06:22:07;;;;;;;19.97;8.63;;;;;;;-5.95;40.44;98408.03;5024160;28;20131;-70
2023/02/22 06:24:33;;;;;;;17.43;8.53;;;;;;;-5.67;40.00;98408.91;5024471;28;20391;-66
2023/02/22 06:27:00;;;;;;;21.60;10.47;;;;;;;-5.41;39.30;98409.97;5040415;28;20055;-69
2023/02/22 06:29:28;;;;;;;19.77;9.60;;;;;;;-5.27;38.72;98418.59;5024115;28;20377;-66
2023/02/22 06:31:54;;;;;;;23.07;9.20;;;;;;;-5.44;38.74;98423.91;5007379;28;20311;-67
2023/02/22 06:34:21;;;;;;;17.40;8.27;;;;;;;-5.20;38.50;98430.22;5007089;28;20748;-67
2023/02/22 06:36:47;;;;;;;17.93;8.07;;;;;;;-5.01;37.93;98417.03;5041355;28;20287;-67
2023/02/22 06:39:15;;;;;;;24.93;9.63;;;;;;;-4.89;37.93;98426.69;5023846;28;20298;-66
2023/02/22 06:41:42;;;;;;;18.63;8.73;;;;;;;-4.70;38.27;98424.63;5073483;28;20298;-67
2023/02/22 06:44:09;;;;;;;20.90;9.23;;;;;;;-4.74;37.20;98433.50;5040471;28;20377;-70
2023/02/22 06:46:36;;;;;;;22.47;9.43;;;;;;;-4.65;37.00;98414.81;5040163;28;20774;-67
2023/02/22 06:49:02;;;;;;;30.50;8.77;;;;;;;-4.65;36.94;98434.69;5056475;28;20351;-66
2023/02/22 06:51:28;;;;;;;27.93;9.03;;;;;;;-4.36;36.95;98437.16;5007153;28;20314;-67
2023/02/22 06:53:54;;;;;;;21.70;8.40;;;;;;;-4.38;36.45;98439.00;5023257;28;20056;-67
2023/02/22 06:56:19;;;;;;;22.20;9.17;;;;;;;-4.22;36.29;98450.09;5039830;28;20278;-66
2023/02/22 06:58:45;;;;;;;25.57;10.20;;;;;;;-4.02;35.73;98446.25;5023404;28;20044;-67
2023/02/22 07:01:11;;;;;;;21.23;9.43;;;;;;;-3.78;35.44;98450.69;5039463;28;20059;-68
2023/02/22 07:03:38;;;;;;;21.17;9.13;;;;;;;-3.79;35.27;98454.22;5066299;28;20124;-67
2023/02/22 07:06:06;;;;;;;21.40;9.60;;;;;;;-3.34;35.10;98465.16;5059771;28;20469;-66
2023/02/22 07:08:31;;;;;;;25.00;9.30;;;;;;;-3.44;34.91;98458.91;5026061;28;20055;-67
2023/02/22 07:10:57;;;;;;;21.10;9.70;;;;;;;-3.19;34.55;98466.72;5042298;28;20044;-66
2023/02/22 07:13:23;;;;;;;18.10;8.40;;;;;;;-2.94;33.87;98464.16;5075831;28;20044;-66
2023/02/22 07:15:48;;;;;;;24.87;8.73;;;;;;;-2.75;33.23;98462.81;5022942;28;20047;-67
2023/02/22 07:18:15;;;;;;;19.13;8.87;;;;;;;-2.49;32.98;98466.25;5032514;28;20499;-67
2023/02/22 07:20:41;;;;;;;22.30;9.87;;;;;;;-1.97;33.11;98464.25;5047597;28;20411;-68
2023/02/22 07:23:06;;;;;;;23.17;10.20;;;;;;;-1.13;32.27;98462.38;5031678;28;20040;-66
2023/02/22 07:25:32;;;;;;;22.03;8.70;;;;;;;0.66;30.52;98474.25;5039514;28;20074;-68
2023/02/22 07:27:58;;;;;;;22.17;9.10;;;;;;;2.66;28.25;98464.72;5046774;28;20056;-67
2023/02/22 07:30:29;;;;;;;21.80;9.10;;;;;;;5.23;25.95;98466.16;5031592;28;20494;-67
2023/02/22 07:32:56;;;;;;;22.02;9.75;;;;;;;6.95;23.12;98469.28;5049028;28;20039;-68
2023/02/22 07:35:43;;;;;;;26.73;9.63;;;;;;;9.01;21.99;98475.94;5046400;28;20048;-67
2023/02/22 07:38:09;;;;;;;20.88;10.00;;;;;;;9.95;20.04;98474.44;5058215;28;20140;-69
2023/02/22 07:40:36;;;;;;;22.55;10.23;;;;;;;11.32;18.80;98472.59;5063739;28;20080;-67
2023/02/22 07:43:06;;;;;;;20.42;10.02;;;;;;;12.08;17.28;98482.41;5066165;28;20036;-67
2023/02/22 07:45:33;;;;;;;20.08;10.80;;;;;;;12.66;16.44;98474.72;5064456;28;20042;-69
2023/02/22 07:48:01;;;;;;;18.80;10.05;;;;;;;13.28;16.31;98483.31;5049067;28;20430;-67
2023/02/22 07:50:31;;;;;;;20.65;10.18;;;;;;;13.71;15.86;98480.28;5047813;28;20040;-67
2023/02/22 07:52:59;;;;;;;22.83;10.65;;;;;;;14.14;15.34;98484.97;5054794;28;20368;-67
2023/02/22 07:55:27;;;;;;;25.35;11.35;;;;;;;14.71;14.75;98490.38;5064813;28;20617;-67
2023/02/22 07:57:55;;;;;;;22.42;10.93;;;;;;;15.09;14.11;98472.50;5056451;28;20060;-67
2023/02/22 08:00:38;;;;;;;20.20;10.82;;;;;;;15.92;13.14;98499.91;5032899;28;20475;-67
2023/02/22 08:03:07;;;;;;;21.77;11.18;;;;;;;16.14;13.04;98493.94;5063609;28;20045;-67
2023/02/22 08:05:34;;;;;;;21.10;10.82;;;;;;;16.35;12.83;98490.00;5063583;28;20096;-68
2023/02/22 08:08:04;;;;;;;21.35;11.02;;;;;;;16.40;12.35;98496.34;5048666;28;20040;-68
2023/02/22 08:10:32;;;;;;;23.10;10.75;;;;;;;16.66;12.58;98495.25;5048338;28;20048;-67
2023/02/22 08:12:58;;;;;;;24.73;11.55;;;;;;;17.23;11.86;98504.63;5021478;28;20044;-67
2023/02/22 08:15:27;;;;;;;20.98;11.00;;;;;;;17.58;11.10;98495.66;5031510;28;20051;-67
2023/02/22 08:17:54;;;;;;;20.42;12.10;;;;;;;17.80;11.14;98494.09;5055434;28;20044;-67
2023/02/22 08:20:20;;;;;;;25.25;12.55;;;;;;;17.96;10.83;98492.56;5029861;28;20070;-67
2023/02/22 08:22:47;;;;;;;24.55;12.40;;;;;;;18.44;10.98;98501.22;5047809;28;20039;-67
2023/02/22 08:25:14;;;;;;;23.42;11.35;;;;;;;18.95;10.41;98500.44;5046343;28;20072;-68
2023/02/22 08:27:44;;;;;;;25.63;12.18;;;;;;;19.35;10.32;98502.06;5046583;28;20040;-68
2023/02/22 08:30:29;;;;;;;23.95;12.05;;;;;;;19.85;10.00;98491.38;5021391;28;20046;-67
2023/02/22 08:32:56;;;;;;;21.05;12.52;;;;;;;19.91;10.09;98523.50;5072774;28;20409;-68
2023/02/22 08:35:23;;;;;;;27.45;12.98;;;;;;;20.02;9.85;98524.50;5056121;28;20071;-68
2023/02/22 08:37:52;;;;;;;23.17;12.90;;;;;;;20.54;9.56;98515.09;5039732;28;20055;-68
2023/02/22 08:40:20;;;;;;;23.38;11.80;;;;;;;20.59;9.22;98525.13;5041392;28;20376;-67
2023/02/22 08:42:46;;;;;;;22.83;12.18;;;;;;;20.46;9.36;98530.88;5040882;28;20105;-67
2023/02/22 08:45:13;;;;;;;23.85;12.68;;;;;;;20.74;9.20;98528.03;5025204;28;20040;-68
2023/02/22 08:47:40;;;;;;;23.05;13.00;;;;;;;20.80;9.04;98532.44;5041837;28;20047;-68
2023/02/22 08:50:07;;;;;;;29.25;12.98;;;;;;;20.84;8.80;98530.84;5058514;28;20043;-67
2023/02/22 08:52:34;;;;;;;27.45;13.05;;;;;;;20.31;8.88;98533.34;5058110;28;20044;-68
2023/02/22 08:55:00;;;;;;;19.33;12.32;;;;;;;20.63;8.83;98527.09;5041131;28;20079;-67
2023/02/22 08:57:26;;;;;;;21.98;13.25;;;;;;;20.69;8.89;98538.75;5092421;28;20126;-67
2023/02/22 08:59:52;;;;;;;23.48;13.30;;;;;;;19.99;8.83;98535.75;5025045;28;20514;-67
2023/02/22 09:02:20;;;;;;;24.63;13.35;;;;;;;20.27;8.96;98534.88;5041241;28;20036;-67
2023/02/22 09:04:47;;;;;;;23.27;12.90;;;;;;;20.31;9.05;98539.56;5058157;28;20036;-67
2023/02/22 09:07:14;;;;;;;22.40;12.85;;;;;;;20.45;8.57;98534.66;5041359;28;20135;-67
2023/02/22 09:09:42;;;;;;;23.58;12.52;;;;;;;20.71;8.26;98533.94;5058112;28;20050;-67
2023/02/22 09:12:08;;;;;;;20.17;12.63;;;;;;;20.54;8.75;98541.25;5041351;28;20040;-67
2023/02/22 09:14:34;;;;;;;27.02;12.88;;;;;;;20.70;8.37;98545.78;5057907;28;20097;-67
2023/02/22 09:17:00;;;;;;;23.35;12.88;;;;;;;20.91;8.21;98550.41;5041113;28;20048;-67
2023/02/22 09:19:26;;;;;;;24.58;13.20;;;;;;;21.17;8.39;98541.56;5040980;28;20082;-67
2023/02/22 09:21:56;;;;;;;20.00;12.85;;;;;;;21.91;7.95;98499.38;5041022;28;20035;-67
2023/02/22 09:24:23;;;;;;;26.42;13.65;;;;;;;22.21;7.79;98549.13;5057919;28;20047;-67
2023/02/22 09:26:55;;;;;;;24.27;12.93;;;;;;;22.60;7.71;98553.19;5057451;28;20139;-67
2023/02/22 09:29:22;;;;;;;27.02;14.30;;;;;;;22.80;7.67;98547.91;5075194;28;20534;-67
2023/02/22 09:31:50;;;;;;;19.73;12.85;;;;;;;22.67;7.50;98551.09;5074217;28;20047;-67
2023/02/22 09:34:18;;;;;;;26.45;13.02;;;;;;;22.99;7.66;98549.09;5024426;28;20044;-67
2023/02/22 09:36:46;;;;;;;23.83;13.00;;;;;;;22.90;7.13;98545.25;5057639;28;20528;-67
2023/02/22 09:39:14;;;;;;;21.83;12.63;;;;;;;23.11;7.58;98528.00;5041268;28;20046;-67
2023/02/22 09:41:44;;;;;;;23.33;13.52;;;;;;;23.56;7.27;98543.63;5024792;28;20047;-67
2023/02/22 09:44:19;;;;;;;22.75;13.30;;;;;;;23.61;7.19;98540.94;5041097;28;20138;-67
2023/02/22 09:46:46;;;;;;;22.23;13.27;;;;;;;23.53;7.25;98548.75;5057611;28;20079;-67
2023/02/22 09:49:16;;;;;;;21.30;14.27;;;;;;;23.49;7.22;98548.50;5041062;28;20097;-67
2023/02/22 09:51:48;;;;;;;21.67;13.25;;;;;;;23.65;7.10;98557.50;5041098;28;20127;-67
2023/02/22 09:54:20;;;;;;;20.42;13.00;;;;;;;23.62;7.00;98556.09;5058471;28;20495;-69
2023/02/22 09:56:48;;;;;;;23.48;13.23;;;;;;;23.52;7.03;98553.38;5061082;28;20035;-67
2023/02/22 09:59:17;;;;;;;22.45;13.30;;;;;;;23.65;7.18;98552.88;5061137;28;20564;-69
2023/02/22 10:01:47;;;;;;;24.55;13.15;;;;;;;23.49;7.17;98547.69;5061091;28;20106;-70
2023/02/22 10:04:54;;;;;;;23.98;13.18;;;;;;;23.64;6.73;98547.72;5044461;28;20498;-67
2023/02/22 10:07:26;;;;;;;19.70;12.40;;;;;;;23.75;6.58;98552.91;5052925;28;20418;-68
2023/02/22 10:09:56;;;;;;;22.83;13.02;;;;;;;23.51;6.90;98549.03;5044216;28;20044;-67
2023/02/22 10:12:44;;;;;;;26.00;13.50;;;;;;;23.44;6.84;98550.38;5077402;28;20085;-67
2023/02/22 10:15:28;;;;;;;23.02;13.10;;;;;;;23.18;6.92;98571.13;5061086;28;20044;-67
2023/02/22 10:18:02;;;;;;;19.00;12.48;;;;;;;23.59;6.84;98558.56;5060699;28;20047;-68
2023/02/22 10:20:30;;;;;;;24.52;13.90;;;;;;;22.95;6.87;98568.84;5060615;28;20514;-68
2023/02/22 10:23:13;;;;;;;20.80;13.35;;;;;;;23.20;6.68;98567.06;5060566;28;20040;-68
2023/02/22 10:25:41;;;;;;;24.50;12.50;;;;;;;22.62;7.03;98564.59;5077185;28;20043;-68
2023/02/22 10:28:29;;;;;;;24.23;12.77;;;;;;;23.02;6.88;98580.25;5060497;28;20131;-67
2023/02/22 10:31:06;;;;;;;22.20;12.32;;;;;;;21.65;7.34;98563.97;5076953;28;20136;-68
2023/02/22 10:33:46;;;;;;;19.38;12.48;;;;;;;20.53;8.00;98567.41;5043971;28;20040;-67
2023/02/22 10:36:21;;;;;;;18.35;12.15;;;;;;;20.61;7.97;98568.84;5043847;28;20151;-68
2023/02/22 10:39:19;;;;;;;20.83;12.15;;;;;;;20.69;7.99;98561.16;5044043;28;20036;-68
2023/02/22 10:41:51;;;;;;;23.30;11.73;;;;;;;20.88;7.81;98567.09;5073450;28;20048;-67
2023/02/22 10:44:17;;;;;;;18.92;11.70;;;;;;;20.16;8.00;98570.88;5060417;28;20067;-69
2023/02/22 10:46:43;;;;;;;21.17;11.88;;;;;;;20.39;8.15;98568.78;5043857;28;20067;-68
2023/02/22 10:49:11;;;;;;;20.88;11.73;;;;;;;20.71;7.88;98564.41;5076725;28;20048;-68
2023/02/22 10:51:38;;;;;;;21.95;12.38;;;;;;;20.44;8.16;98576.16;5043679;28;20100;-68
2023/02/22 10:54:13;;;;;;;18.67;11.60;;;;;;;20.57;8.22;98579.34;5060013;28;20384;-68
2023/02/22 10:56:51;;;;;;;22.50;11.38;;;;;;;19.55;8.15;98577.84;5059919;28;20063;-68
2023/02/22 10:59:56;;;;;;;20.83;12.00;;;;;;;18.72;8.77;98578.50;5043937;28;20043;-69
2023/02/22 11:02:31;;;;;;;21.45;11.18;;;;;;;17.25;9.56;98575.00;5094268;28;20036;-68
2023/02/22 11:04:59;;;;;;;23.45;12.63;;;;;;;16.76;9.64;98584.84;5043464;28;20101;-68
2023/02/22 11:07:31;;;;;;;17.73;10.05;;;;;;;16.63;9.64;98573.44;5042622;28;20062;-68
2023/02/22 11:10:02;;;;;;;18.05;10.05;;;;;;;15.79;10.25;98577.66;5043146;28;20460;-68
2023/02/22 11:12:32;;;;;;;20.95;11.27;;;;;;;15.33;10.68;98587.78;5027385;28;20100;-67
2023/02/22 11:15:18;;;;;;;21.88;10.60;;;;;;;16.24;10.21;98590.69;5043062;28;20044;-67
2023/02/22 11:17:45;;;;;;;19.17;10.13;;;;;;;16.57;9.75;98590.41;5036123;28;20047;-68
2023/02/22 11:20:24;;;;;;;21.38;9.93;;;;;;;16.96;9.97;98599.91;5059932;28;20044;-68
2023/02/22 11:22:54;;;;;;;19.95;10.10;;;;;;;16.79;10.10;98592.44;5093956;28;20055;-68
2023/02/22 11:25:24;;;;;;;18.20;9.70;;;;;;;16.14;10.01;98602.94;5043040;28;20498;-68
2023/02/22 11:27:51;;;;;;;17.50;9.85;;;;;;;16.24;10.35;98603.25;5026369;28;20048;-68
2023/02/22 11:30:20;;;;;;;18.80;9.77;;;;;;;16.33;10.10;98600.09;5043161;28;20533;-67
2023/02/22 11:32:49;;;;;;;19.52;10.55;;;;;;;16.86;10.04;98605.78;5059532;28;20048;-67
2023/02/22 11:35:22;;;;;;;19.63;9.18;;;;;;;17.70;9.73;98603.09;5076243;28;20052;-68
2023/02/22 11:37:48;;;;;;;16.40;10.00;;;;;;;17.58;9.17;98603.06;5026576;28;20066;-68
2023/02/22 11:40:21;;;;;;;16.80;9.77;;;;;;;17.49;9.41;98603.59;5042742;28;20483;-68